• Join FlightAware (Why Join?)
  • Login
  • US Flag 
Rudolph Flight #1: Arrived! 
03:11PM EST


 

Airport Tracker/Info


-or-


 

Live Flight TrackerFlight Track Log ✈ PDT4314 ✈ 10-Feb-2014 ✈ KBGM - KPHL

Flight Track Log - Related Links

Times and Time Zones

All times are in EST time to prevent confusion due to time zone crossing. See the PDT4314 flight status page for this flight to view local times or setup timezone preferences in your user account.

Time Position Orientation Groundspeed Altitude Reporting Facility
EST Latitude Longitude Course Direction KTS MPH feet Rate Location/Type
08:23PM 42.1211 -76.0019 165° South 164 189 8,000  Level New York Center
08:24PM 42.0667 -75.9736 159° South 199 229 8,000  Level New York Center
08:25PM 41.9897 -75.9447 164° South 239 275 8,000  Level New York Center
08:26PM 41.8324 -75.8570 180° South  Level Estimated
08:26PM 41.9214 -75.9161 163° South 246 283 8,000  Level New York Center
08:27PM 41.7793 -75.9062 215° Southwest  Level FlightAware Approximate
08:27PM 41.8561 -75.8906 164° South 250 288 8,000  Level New York Center
08:28PM 41.7867 -75.8631 164° South 251 289 8,000  Level New York Center
08:29PM 41.7161 -75.8372 165° South 251 289 8,000  Level New York Center
08:30PM 41.6467 -75.8108 164° South 250 288 8,000  Level New York Center
08:31PM 41.5772 -75.7836 164° South 250 288 8,000  Level New York Center
08:32PM 41.5194 -75.7603 163° South 249 287 8,000  Level New York Center
08:33PM 41.4522 -75.7339 164° South 249 287 8,000  Level New York Center
08:34PM 41.3850 -75.7089 164° South 249 287 8,000  Level New York Center
08:35PM 41.3047 -75.6778 164° South 249 287 8,000  Level New York Center
08:36PM 41.2369 -75.6503 163° South 249 287 8,000  Level New York Center
08:37PM 41.1672 -75.6219 163° South 250 288 8,000  Level New York Center
08:38PM 41.0967 -75.5953 164° South 250 288 8,000 -60 Level New York Center
08:39PM 41.0314 -75.5769 168° South 250 288 7,900  Descending New York Center
08:40PM 40.9569 -75.5764 180° South 247 284 8,000  Climbing New York Center
08:41PM 40.8911 -75.5758 180° South 246 283 8,000  Level New York Center
08:42PM 40.8200 -75.5750 179° South 246 283 8,000  Level New York Center
08:43PM 40.7500 -75.5728 179° South 244 281 8,000 -300 Level New York Center
08:44PM 40.6794 -75.5564 170° South 250 288 7,500 -600 Descending New York Center
08:45PM 40.6086 -75.5556 179° South 254 292 6,800 -720 Descending New York Center
08:46PM 40.5342 -75.5458 174° South 259 298 6,100 -720 Descending New York Center
08:47PM 40.4736 -75.5003 150° Southeast 254 292 5,400 -540 Descending New York Center
08:48PM 40.4094 -75.4547 152° Southeast 254 292 5,000 -240 Descending New York Center
08:49PM 40.3478 -75.4103 151° Southeast 246 283 5,000  Level New York Center
08:50PM 40.2869 -75.3664 151° Southeast 244 281 5,000 -120 Level New York Center
08:51PM 40.2264 -75.3236 152° Southeast 240 276 4,800 -480 Descending New York Center
08:53PM 40.1675 -75.2836 153° Southeast 244 281 4,100 -720 Descending New York Center
08:54PM 40.1033 -75.2381 151° Southeast 244 281 3,400 -540 Descending New York Center
08:55PM 40.0428 -75.1967 152° Southeast 245 282 3,000 -240 Descending New York Center
08:56PM 39.9844 -75.1556 152° Southeast 241 277 3,000 -300 Level New York Center
08:57PM 39.9275 -75.1467 173° South 203 234 2,500 -1,020 Descending New York Center
08:58PM 39.8936 -75.1717 210° Southwest 148 170 1,000 -1,140 Descending New York Center
08:59PM 39.8831 -75.2069 249° West 116 133 200 -780 Descending New York Center